Time;durP1;ratioP1;P1;durP2;ratioP2;P2;SDS_P1;SDS_P2;PMS_P1;PMS_P2;Temp;Humidity;BMP_temperature;BMP_pressure;BME280_temperature;BME280_humidity;BME280_pressure;Samples;Min_cycle;Max_cycle;Signal;HPM_P1;HPM_P2
2021/04/29 00:01:08;;;;;;;8.73;5.60;;;;;;;7.18;81.37;100004.13;4994897;28;20037;-82
2021/04/29 00:03:34;;;;;;;10.23;5.78;;;;;;;7.02;79.62;100001.59;5012151;28;20464;-83
2021/04/29 00:06:00;;;;;;;8.35;5.22;;;;;;;7.08;80.30;99998.59;4994637;28;20038;-82
2021/04/29 00:08:26;;;;;;;11.30;5.85;;;;;;;7.08;80.22;99996.00;5015080;28;20113;-82
2021/04/29 00:10:51;;;;;;;10.38;6.13;;;;;;;7.05;80.37;100004.03;5012541;28;20064;-82
2021/04/29 00:13:17;;;;;;;8.98;5.68;;;;;;;7.05;80.24;99998.81;4994977;28;20041;-82
2021/04/29 00:15:44;;;;;;;8.32;5.05;;;;;;;7.06;80.60;100003.06;5012112;28;20026;-82
2021/04/29 00:18:10;;;;;;;8.77;4.97;;;;;;;6.94;79.75;100002.03;5011992;28;20018;-82
2021/04/29 00:20:35;;;;;;;7.90;5.68;;;;;;;6.92;79.94;100003.06;5012021;28;20024;-82
2021/04/29 00:23:00;;;;;;;9.50;5.53;;;;;;;6.91;79.76;100001.38;5025208;28;20391;-82
2021/04/29 00:25:26;;;;;;;7.25;5.30;;;;;;;6.85;80.81;100009.56;5034409;28;20030;-83
2021/04/29 00:27:51;;;;;;;11.55;5.25;;;;;;;6.71;79.54;100000.81;5035362;28;20025;-83
2021/04/29 00:30:17;;;;;;;11.10;5.32;;;;;;;6.68;80.01;100000.97;5035025;28;20026;-83
2021/04/29 00:32:42;;;;;;;8.48;5.20;;;;;;;6.80;79.77;100009.03;5035186;28;20159;-83
2021/04/29 00:35:09;;;;;;;8.88;5.15;;;;;;;6.80;80.05;100014.22;5035386;28;20108;-83
2021/04/29 00:37:35;;;;;;;7.45;5.30;;;;;;;6.83;80.16;100011.44;5022354;28;20120;-83
2021/04/29 00:40:00;;;;;;;7.18;5.13;;;;;;;6.73;80.34;100014.59;5015346;28;20073;-83
2021/04/29 00:42:26;;;;;;;12.85;5.32;;;;;;;6.63;77.94;100015.19;5014955;28;20050;-83
2021/04/29 00:44:51;;;;;;;9.90;4.97;;;;;;;6.88;79.37;100007.63;5015294;28;20022;-83
2021/04/29 00:47:17;;;;;;;9.32;5.38;;;;;;;6.91;78.84;100017.03;5015258;28;20062;-83
2021/04/29 00:49:42;;;;;;;8.57;4.97;;;;;;;6.80;77.27;100019.47;5015541;28;20504;-83
2021/04/29 00:52:08;;;;;;;9.52;4.50;;;;;;;7.04;77.67;100007.56;5025737;28;20073;-83
2021/04/29 00:54:33;;;;;;;9.68;4.47;;;;;;;7.06;78.74;100004.84;5019846;28;20076;-83
2021/04/29 00:56:59;;;;;;;6.47;4.57;;;;;;;7.13;78.64;100020.06;5015075;28;20077;-83
2021/04/29 00:59:25;;;;;;;8.57;4.53;;;;;;;7.15;78.67;100012.97;5015133;28;20030;-83
2021/04/29 01:02:01;;;;;;;7.45;4.13;;;;;;;7.22;76.49;100015.22;5014845;28;20432;-83
2021/04/29 01:04:33;;;;;;;10.35;4.82;;;;;;;7.04;74.93;100001.50;5014993;28;20026;-83
2021/04/29 01:07:04;;;;;;;6.53;3.95;;;;;;;7.00;76.31;100008.66;5014805;28;20495;-83
2021/04/29 01:09:40;;;;;;;6.37;4.07;;;;;;;7.00;75.60;100011.28;5030605;28;20089;-83
2021/04/29 01:12:18;;;;;;;7.97;4.63;;;;;;;6.72;78.55;100015.50;5034991;28;20271;-83
2021/04/29 01:14:45;;;;;;;7.75;4.55;;;;;;;6.61;78.19;100015.28;5016850;28;20033;-83
2021/04/29 01:17:11;;;;;;;14.05;5.85;;;;;;;6.59;77.78;100011.94;5034442;28;20402;-83
2021/04/29 01:19:42;;;;;;;7.70;4.65;;;;;;;6.72;77.04;100017.28;5034477;28;20018;-82
2021/04/29 01:22:08;;;;;;;10.30;4.50;;;;;;;6.67;78.94;100014.09;5034256;28;20060;-83
2021/04/29 01:25:04;;;;;;;8.07;3.95;;;;;;;6.73;77.83;100019.81;5016141;28;20038;-83
2021/04/29 01:27:31;;;;;;;7.97;4.82;;;;;;;6.50;77.77;100015.09;4986335;28;20030;-83
2021/04/29 01:29:56;;;;;;;19.98;4.88;;;;;;;6.37;77.41;100027.13;4994908;28;20105;-83
2021/04/29 01:32:22;;;;;;;9.40;4.82;;;;;;;6.34;77.75;100015.13;4994732;28;20477;-83
2021/04/29 01:34:48;;;;;;;6.32;3.95;;;;;;;6.42;77.74;100018.13;4994528;28;20034;-83
2021/04/29 01:37:14;;;;;;;9.32;4.30;;;;;;;6.38;78.37;100014.00;4994651;28;20358;-83
2021/04/29 01:39:41;;;;;;;10.05;4.15;;;;;;;6.38;76.39;100028.78;4994819;28;20092;-83
2021/04/29 01:42:07;;;;;;;6.53;4.28;;;;;;;6.27;78.50;100027.63;5032400;28;20372;-83
2021/04/29 01:44:33;;;;;;;9.70;4.30;;;;;;;6.26;77.25;100022.50;5016068;28;20562;-83
2021/04/29 01:47:00;;;;;;;8.88;4.30;;;;;;;6.34;77.73;100028.16;5016131;28;20021;-83
2021/04/29 01:49:26;;;;;;;11.20;4.45;;;;;;;6.11;77.26;100030.25;5015979;28;20018;-83
2021/04/29 01:51:52;;;;;;;8.45;3.95;;;;;;;6.24;79.13;100034.78;5033664;28;20033;-83
2021/04/29 01:54:18;;;;;;;6.18;4.53;;;;;;;6.22;78.97;100026.22;5033776;28;20072;-83
2021/04/29 01:56:44;;;;;;;7.53;3.53;;;;;;;6.12;77.55;100038.91;5017849;28;20032;-83
2021/04/29 01:59:10;;;;;;;12.15;5.35;;;;;;;6.14;79.00;100032.72;4996262;28;20381;-83
2021/04/29 02:01:39;;;;;;;6.68;3.53;;;;;;;6.24;78.70;100032.19;5013846;28;20435;-83
2021/04/29 02:04:07;;;;;;;6.93;3.60;;;;;;;6.16;79.58;100040.44;5013655;28;20030;-83
2021/04/29 02:06:33;;;;;;;7.25;3.97;;;;;;;5.93;79.08;100034.69;5013589;28;20018;-83
2021/04/29 02:09:00;;;;;;;8.35;4.72;;;;;;;5.99;80.11;100037.94;4996123;28;20076;-83
2021/04/29 02:11:29;;;;;;;9.32;4.25;;;;;;;6.02;79.78;100037.75;5013023;28;20080;-83
2021/04/29 02:13:55;;;;;;;12.07;4.32;;;;;;;6.08;80.17;100040.88;5012394;28;20026;-83
2021/04/29 02:16:42;;;;;;;7.68;3.90;;;;;;;6.19;78.71;100040.28;5013538;28;20132;-83
2021/04/29 02:19:09;;;;;;;5.55;3.50;;;;;;;6.01;78.93;100046.50;5013546;28;20074;-83
2021/04/29 02:21:37;;;;;;;8.30;4.05;;;;;;;6.04;78.46;100030.69;5013365;28;20117;-83
2021/04/29 02:24:04;;;;;;;8.30;4.15;;;;;;;5.93;78.33;100039.91;4995947;28;20109;-83
2021/04/29 02:26:30;;;;;;;10.27;4.75;;;;;;;5.97;78.73;100037.19;5013606;28;20472;-83
2021/04/29 02:28:56;;;;;;;6.53;4.32;;;;;;;5.98;78.86;100031.03;5025873;28;20033;-83
2021/04/29 02:31:23;;;;;;;6.53;3.25;;;;;;;5.84;79.18;100027.38;5033096;28;20079;-83
2021/04/29 02:33:50;;;;;;;5.20;3.33;;;;;;;5.97;79.38;100039.78;5031387;28;20483;-83
2021/04/29 02:36:16;;;;;;;6.88;4.00;;;;;;;5.94;78.35;100035.53;5033424;28;20037;-83
2021/04/29 02:38:42;;;;;;;6.80;4.00;;;;;;;5.91;79.36;100033.94;5032979;28;20025;-83
2021/04/29 02:41:08;;;;;;;7.50;3.90;;;;;;;5.91;79.15;100039.16;5033045;28;20104;-83
2021/04/29 02:43:34;;;;;;;8.85;3.60;;;;;;;5.90;78.28;100034.84;5034377;28;20040;-83
2021/04/29 02:46:00;;;;;;;10.02;4.20;;;;;;;5.87;78.27;100039.41;5033864;28;20480;-83
2021/04/29 02:48:25;;;;;;;12.40;3.55;;;;;;;5.79;77.07;100037.22;5019715;28;20029;-83
2021/04/29 02:50:51;;;;;;;6.45;3.67;;;;;;;5.88;79.56;100041.91;5013132;28;20057;-83
2021/04/29 02:53:18;;;;;;;8.80;3.72;;;;;;;5.84;78.39;100043.00;5012932;28;20026;-83
2021/04/29 02:55:45;;;;;;;9.85;3.70;;;;;;;5.81;79.16;100045.78;5013060;28;20061;-82
2021/04/29 02:58:13;;;;;;;6.75;3.30;;;;;;;5.84;78.70;100044.78;5012932;28;20022;-83
2021/04/29 03:00:40;;;;;;;8.27;3.65;;;;;;;5.76;77.84;100048.63;5012841;28;20431;-83
2021/04/29 03:03:08;;;;;;;6.32;3.85;;;;;;;5.78;77.68;100050.31;5023853;28;20124;-83
2021/04/29 03:05:35;;;;;;;6.32;3.58;;;;;;;5.79;78.64;100047.63;5016294;28;20072;-83
2021/04/29 03:08:00;;;;;;;6.70;3.80;;;;;;;5.73;79.08;100040.16;5012647;28;20022;-83
2021/04/29 03:10:26;;;;;;;5.60;3.63;;;;;;;5.67;79.47;100046.53;5012750;28;20036;-83
2021/04/29 03:12:52;;;;;;;8.95;4.40;;;;;;;5.59;78.27;100047.84;5013165;28;20057;-83
2021/04/29 03:15:17;;;;;;;6.05;3.72;;;;;;;5.59;79.81;100043.50;5012748;28;20058;-83
2021/04/29 03:17:43;;;;;;;7.13;3.88;;;;;;;5.54;78.89;100046.31;5012518;28;20092;-83
2021/04/29 03:20:09;;;;;;;10.82;4.72;;;;;;;5.59;78.39;100046.09;5026277;28;20072;-83
2021/04/29 03:22:34;;;;;;;5.90;4.40;;;;;;;5.56;78.56;100039.28;5031970;28;20022;-83
2021/04/29 03:25:00;;;;;;;6.03;4.03;;;;;;;5.56;78.65;100041.88;5032171;28;20446;-82
2021/04/29 03:27:26;;;;;;;8.30;4.43;;;;;;;5.56;78.43;100049.69;5032345;28;20028;-82
2021/04/29 03:29:52;;;;;;;9.23;4.53;;;;;;;5.45;78.63;100046.81;5032118;28;20104;-83
2021/04/29 03:32:18;;;;;;;10.15;4.55;;;;;;;5.49;77.72;100043.13;5014193;28;20057;-83
2021/04/29 03:34:44;;;;;;;6.85;4.10;;;;;;;5.55;78.12;100044.59;5018893;28;20034;-83
2021/04/29 03:37:09;;;;;;;6.00;4.25;;;;;;;5.55;78.45;100040.22;5012311;28;20416;-83
2021/04/29 03:39:35;;;;;;;9.05;4.35;;;;;;;5.55;79.11;100049.78;5012273;28;20025;-83
2021/04/29 03:42:00;;;;;;;8.85;4.22;;;;;;;5.50;78.82;100052.63;5012147;28;20030;-83
2021/04/29 03:44:26;;;;;;;12.07;4.88;;;;;;;5.45;79.70;100051.16;5012154;28;20026;-82
2021/04/29 03:46:51;;;;;;;13.85;4.88;;;;;;;5.38;78.62;100058.47;5012225;28;20030;-83
2021/04/29 03:49:16;;;;;;;6.97;4.57;;;;;;;5.38;78.93;100048.06;5022919;28;20171;-83
2021/04/29 03:51:42;;;;;;;5.35;4.82;;;;;;;5.41;78.75;100047.91;5016401;28;20357;-83
2021/04/29 03:54:07;;;;;;;6.82;4.72;;;;;;;5.36;78.82;100055.94;5012531;28;20034;-83
2021/04/29 03:56:33;;;;;;;13.10;4.82;;;;;;;5.20;79.15;100065.47;5012012;28;20045;-83
2021/04/29 03:58:58;;;;;;;9.20;5.28;;;;;;;5.07;79.35;100052.22;4996739;28;20030;-83
2021/04/29 04:01:24;;;;;;;11.05;5.30;;;;;;;5.20;79.66;100064.63;5017547;28;20038;-83
2021/04/29 04:03:49;;;;;;;8.02;5.05;;;;;;;5.22;79.49;100055.81;5015870;28;20025;-82
2021/04/29 04:06:14;;;;;;;8.30;4.95;;;;;;;5.25;79.36;100060.03;5016037;28;20109;-83
2021/04/29 04:08:40;;;;;;;5.30;4.53;;;;;;;5.24;79.67;100067.00;5015998;28;20033;-83
2021/04/29 04:11:05;;;;;;;7.90;5.00;;;;;;;5.32;80.73;100064.00;5015835;28;20030;-83
2021/04/29 04:13:30;;;;;;;9.77;5.10;;;;;;;5.28;80.01;100065.09;5016433;28;20037;-83
2021/04/29 04:15:56;;;;;;;8.48;5.05;;;;;;;5.26;79.46;100059.13;5018635;28;20045;-83
2021/04/29 04:18:21;;;;;;;12.02;4.97;;;;;;;5.20;79.97;100060.25;5024542;28;20065;-83
2021/04/29 04:20:47;;;;;;;7.72;5.43;;;;;;;5.18;79.53;100056.91;5035536;28;20487;-83
2021/04/29 04:23:12;;;;;;;7.13;4.93;;;;;;;5.16;78.91;100059.56;5035251;28;20128;-83
2021/04/29 04:25:37;;;;;;;8.45;5.05;;;;;;;5.12;79.18;100060.66;5035393;28;20440;-83
2021/04/29 04:28:03;;;;;;;9.88;5.05;;;;;;;5.06;79.19;100068.78;5035361;28;20032;-83
2021/04/29 04:30:29;;;;;;;10.10;5.90;;;;;;;4.98;79.78;100073.53;5035483;28;20029;-83
2021/04/29 04:32:54;;;;;;;7.32;5.72;;;;;;;4.93;79.17;100075.50;5027933;28;20388;-83
2021/04/29 04:35:20;;;;;;;12.20;6.43;;;;;;;4.89;79.63;100072.22;5015602;28;20102;-83
2021/04/29 04:37:46;;;;;;;8.43;5.85;;;;;;;4.87;79.18;100075.81;4997947;28;20038;-83
2021/04/29 04:40:13;;;;;;;10.57;5.38;;;;;;;4.68;77.94;100078.47;5015302;28;20026;-82
2021/04/29 04:42:38;;;;;;;8.85;5.22;;;;;;;4.71;78.37;100078.31;5015060;28;20477;-83
2021/04/29 04:45:06;;;;;;;8.43;5.80;;;;;;;4.79;79.75;100086.59;5015267;28;20033;-83
2021/04/29 04:47:31;;;;;;;7.00;5.32;;;;;;;4.81;80.02;100094.31;5021027;28;20039;-83
2021/04/29 04:49:57;;;;;;;7.70;5.22;;;;;;;4.84;79.86;100091.56;5035169;28;20025;-83
2021/04/29 04:52:22;;;;;;;7.93;5.70;;;;;;;4.77;80.18;100107.47;5017046;28;20064;-83
2021/04/29 04:54:49;;;;;;;9.40;5.85;;;;;;;4.77;79.70;100112.66;5034809;28;20482;-83
2021/04/29 04:57:14;;;;;;;7.22;5.30;;;;;;;4.79;79.35;100109.16;5034971;28;20555;-83
2021/04/29 04:59:40;;;;;;;8.25;4.95;;;;;;;4.80;80.28;100103.03;5034979;28;20064;-83
2021/04/29 05:02:05;;;;;;;10.43;5.85;;;;;;;4.86;79.84;100108.81;5029940;28;20030;-83
2021/04/29 05:04:33;;;;;;;10.63;6.32;;;;;;;4.94;80.46;100114.47;5014720;28;20443;-83
2021/04/29 05:06:58;;;;;;;6.13;4.97;;;;;;;4.89;79.61;100113.00;5014894;28;20178;-83
2021/04/29 05:09:24;;;;;;;10.90;5.60;;;;;;;4.88;79.49;100106.97;4996771;28;20547;-83
2021/04/29 05:11:49;;;;;;;11.30;5.90;;;;;;;4.77;78.82;100115.28;5014496;28;20068;-83
2021/04/29 05:14:15;;;;;;;8.45;6.00;;;;;;;4.76;79.77;100105.81;5015202;28;20025;-83
2021/04/29 05:16:40;;;;;;;12.63;6.40;;;;;;;4.80;80.78;100109.09;5017746;28;20025;-83
2021/04/29 05:19:06;;;;;;;9.23;6.70;;;;;;;4.71;80.18;100114.75;5027298;28;20440;-83
2021/04/29 05:21:31;;;;;;;14.85;7.28;;;;;;;4.61;78.40;100132.53;5014906;28;20377;-83
2021/04/29 05:23:57;;;;;;;9.65;6.20;;;;;;;4.37;79.38;100130.19;5014370;28;20485;-83
2021/04/29 05:26:22;;;;;;;14.23;6.65;;;;;;;4.56;80.32;100137.97;5014621;28;20076;-83
2021/04/29 05:28:47;;;;;;;14.40;6.93;;;;;;;4.63;81.31;100135.06;5014568;28;20026;-83
2021/04/29 05:31:13;;;;;;;9.98;5.72;;;;;;;4.69;79.77;100130.41;5014345;28;20109;-83
2021/04/29 05:33:38;;;;;;;11.18;6.72;;;;;;;4.76;79.88;100134.41;5014269;28;20072;-83
2021/04/29 05:36:04;;;;;;;11.48;6.28;;;;;;;4.83;80.19;100132.34;5014423;28;20029;-83
2021/04/29 05:38:29;;;;;;;10.15;6.80;;;;;;;4.86;79.37;100133.94;5015024;28;20080;-82
2021/04/29 05:40:55;;;;;;;9.75;7.10;;;;;;;4.86;78.96;100139.16;5014152;28;20026;-83
2021/04/29 05:43:20;;;;;;;9.95;7.35;;;;;;;4.77;80.39;100136.09;5014141;28;20037;-83
2021/04/29 05:45:45;;;;;;;14.50;8.60;;;;;;;4.91;81.14;100142.38;5014283;28;20028;-83
2021/04/29 05:48:11;;;;;;;14.25;8.50;;;;;;;5.00;80.11;100144.53;5017387;28;20053;-83
2021/04/29 05:50:36;;;;;;;13.40;8.07;;;;;;;5.03;80.26;100136.56;5033644;28;20529;-83
2021/04/29 05:53:02;;;;;;;14.13;8.18;;;;;;;5.14;79.78;100139.50;5033879;28;20029;-82
2021/04/29 05:55:27;;;;;;;12.90;9.40;;;;;;;5.16;79.13;100142.03;5033687;28;20032;-83
2021/04/29 05:57:57;;;;;;;13.88;9.65;;;;;;;5.25;80.05;100141.56;5033785;28;20024;-83
2021/04/29 06:00:22;;;;;;;11.40;8.63;;;;;;;5.29;79.87;100143.09;5033499;28;20029;-83
2021/04/29 06:02:48;;;;;;;18.50;9.63;;;;;;;5.37;79.50;100150.50;5031632;28;20496;-83
2021/04/29 06:05:13;;;;;;;13.55;9.30;;;;;;;5.46;79.51;100150.06;5033274;28;20083;-83
2021/04/29 06:07:38;;;;;;;12.73;9.80;;;;;;;5.52;79.82;100152.34;5033218;28;20075;-83
2021/04/29 06:10:04;;;;;;;17.23;9.90;;;;;;;5.59;79.09;100150.28;5033664;28;20033;-83
2021/04/29 06:12:29;;;;;;;19.73;9.55;;;;;;;5.70;79.42;100152.31;5020563;28;20041;-83
2021/04/29 06:14:55;;;;;;;12.45;9.50;;;;;;;5.78;79.31;100150.16;5013497;28;20022;-83
2021/04/29 06:17:20;;;;;;;22.20;11.90;;;;;;;5.68;78.87;100143.75;5016336;28;20028;-83
2021/04/29 06:19:46;;;;;;;16.55;8.93;;;;;;;5.85;77.93;100154.13;5010926;28;20054;-83
2021/04/29 06:22:11;;;;;;;16.52;9.93;;;;;;;5.95;78.91;100146.72;4995634;28;20496;-83
2021/04/29 06:24:36;;;;;;;17.38;8.82;;;;;;;5.90;76.67;100154.72;4996051;28;20022;-83
2021/04/29 06:27:02;;;;;;;12.57;8.48;;;;;;;6.10;76.58;100158.94;4993778;28;20030;-84
2021/04/29 06:29:27;;;;;;;14.75;8.77;;;;;;;6.16;75.83;100147.31;5003273;28;20049;-83
2021/04/29 06:31:53;;;;;;;11.20;8.18;;;;;;;6.26;77.79;100151.13;5013206;28;20120;-90
2021/04/29 06:34:18;;;;;;;17.13;8.80;;;;;;;6.38;77.42;100148.75;5009512;28;20391;-89
2021/04/29 06:36:43;;;;;;;13.73;8.85;;;;;;;7.26;75.83;100157.72;5012469;28;20101;-89
2021/04/29 06:39:12;;;;;;;14.40;9.00;;;;;;;8.66;74.42;100157.94;5013624;28;20038;-92
2021/04/29 06:41:38;;;;;;;9.88;7.28;;;;;;;9.78;67.48;100156.72;5015493;28;20029;-94
2021/04/29 06:44:03;;;;;;;11.80;8.18;;;;;;;10.81;68.42;100142.41;5013851;28;20038;-95
2021/04/29 06:46:29;;;;;;;10.38;6.65;;;;;;;11.80;62.58;100158.72;5012217;28;20038;-90
2021/04/29 06:48:54;;;;;;;9.93;6.03;;;;;;;12.06;56.05;100159.34;5009957;28;20026;-90
2021/04/29 06:51:20;;;;;;;18.10;6.40;;;;;;;13.16;57.89;100156.72;5014238;28;20025;-89
2021/04/29 06:53:45;;;;;;;9.90;5.60;;;;;;;13.35;53.56;100163.94;5012352;28;20426;-89
2021/04/29 06:56:10;;;;;;;8.43;5.32;;;;;;;13.65;50.37;100156.09;5019140;28;20026;-87
2021/04/29 06:58:36;;;;;;;10.07;5.28;;;;;;;13.79;49.00;100165.47;5014473;28;20399;-88
2021/04/29 07:01:02;;;;;;;8.63;5.13;;;;;;;14.21;49.95;100164.53;5018633;28;20087;-89
2021/04/29 07:03:28;;;;;;;11.95;5.70;;;;;;;14.90;46.73;100158.47;5026202;28;20029;-89
2021/04/29 07:05:54;;;;;;;9.25;4.82;;;;;;;15.37;43.89;100166.53;5016099;28;20408;-90
2021/04/29 07:08:19;;;;;;;11.52;4.97;;;;;;;15.67;43.91;100170.78;5032312;28;20700;-89
2021/04/29 07:10:45;;;;;;;13.75;4.85;;;;;;;15.43;42.10;100173.91;5015858;28;20487;-88
2021/04/29 07:13:10;;;;;;;6.68;4.35;;;;;;;16.33;42.87;100170.84;5020086;28;20025;-88
2021/04/29 07:15:36;;;;;;;7.78;4.65;;;;;;;17.10;41.03;100168.69;5013634;28;20486;-88
2021/04/29 07:18:04;;;;;;;7.85;4.00;;;;;;;17.86;40.88;100176.09;5012960;28;20507;-87
2021/04/29 07:20:29;;;;;;;6.75;4.30;;;;;;;17.45;41.43;100176.63;5020458;28;20109;-86
2021/04/29 07:22:56;;;;;;;6.05;3.85;;;;;;;18.07;41.48;100169.56;5014859;28;20180;-91
2021/04/29 07:25:23;;;;;;;8.05;3.72;;;;;;;18.12;38.34;100169.94;5010645;28;20026;-92
2021/04/29 07:27:50;;;;;;;4.35;2.90;;;;;;;18.47;39.09;100168.09;5012162;28;20381;-91
2021/04/29 07:30:15;;;;;;;5.88;3.60;;;;;;;19.00;36.02;100170.38;5014207;28;20534;-91
2021/04/29 07:32:41;;;;;;;5.32;3.35;;;;;;;19.64;35.70;100177.69;4996524;28;20117;-92
2021/04/29 07:35:07;;;;;;;6.32;3.78;;;;;;;19.44;37.49;100177.22;4993801;28;20030;-92
2021/04/29 07:37:32;;;;;;;8.90;3.00;;;;;;;19.87;35.70;100172.50;4993933;28;20499;-93
2021/04/29 07:39:58;;;;;;;8.68;3.50;;;;;;;19.75;34.55;100169.38;5006605;28;20029;-93
2021/04/29 07:42:23;;;;;;;6.40;3.97;;;;;;;19.24;36.65;100182.03;5011052;28;20097;-92
2021/04/29 07:44:49;;;;;;;4.95;3.90;;;;;;;19.84;36.59;100174.69;5013415;28;20049;-93
2021/04/29 07:47:14;;;;;;;4.47;3.38;;;;;;;20.25;34.15;100166.56;4996970;28;20025;-93
2021/04/29 07:49:40;;;;;;;4.97;3.72;;;;;;;20.45;33.95;100170.47;4995278;28;20093;-92
2021/04/29 07:52:06;;;;;;;6.82;3.78;;;;;;;20.56;34.29;100170.06;5018714;28;20040;-91
2021/04/29 07:54:32;;;;;;;5.68;3.33;;;;;;;20.18;33.80;100180.59;5031640;28;20077;-90
2021/04/29 07:56:58;;;;;;;4.35;3.63;;;;;;;20.79;34.06;100171.97;5033805;28;20050;-91
2021/04/29 07:59:24;;;;;;;6.40;4.68;;;;;;;20.98;32.13;100176.84;5021468;28;20460;-90
2021/04/29 08:01:50;;;;;;;9.23;4.65;;;;;;;21.48;32.20;100179.16;5005318;28;20499;-91
2021/04/29 08:04:15;;;;;;;6.78;3.88;;;;;;;21.55;32.26;100172.91;5020258;28;20025;-92
2021/04/29 08:06:42;;;;;;;7.72;4.00;;;;;;;21.37;30.37;100178.53;5010028;28;20377;-90
2021/04/29 08:09:07;;;;;;;5.28;3.80;;;;;;;21.94;30.59;100177.19;5012219;28;20037;-90
2021/04/29 08:11:33;;;;;;;5.38;3.95;;;;;;;21.98;29.21;100177.66;5020702;28;20635;-90
2021/04/29 08:13:58;;;;;;;8.20;3.45;;;;;;;22.56;29.78;100169.78;4991859;28;20029;-91
2021/04/29 08:16:24;;;;;;;9.20;4.32;;;;;;;22.46;31.64;100185.28;5001823;28;20041;-90
2021/04/29 08:18:49;;;;;;;9.65;4.32;;;;;;;22.79;27.55;100180.31;5013280;28;20025;-91
2021/04/29 08:21:15;;;;;;;5.32;3.80;;;;;;;22.52;30.63;100182.69;4994367;28;20029;-91
2021/04/29 08:23:41;;;;;;;6.28;4.05;;;;;;;22.58;30.71;100187.28;4996008;28;20041;-91
2021/04/29 08:26:07;;;;;;;6.20;4.28;;;;;;;22.37;28.87;100182.72;5020554;28;20029;-90
2021/04/29 08:28:32;;;;;;;8.52;3.85;;;;;;;21.57;30.53;100186.91;4994319;28;20029;-90
2021/04/29 08:30:58;;;;;;;8.27;4.00;;;;;;;21.15;31.51;100188.25;5012920;28;20464;-90
2021/04/29 08:33:23;;;;;;;7.13;4.28;;;;;;;21.63;31.07;100185.34;5023281;28;20028;-90
2021/04/29 08:35:49;;;;;;;6.95;4.10;;;;;;;22.14;31.18;100181.97;5017498;28;20056;-90
2021/04/29 08:38:14;;;;;;;6.72;4.18;;;;;;;22.92;29.06;100184.97;5015825;28;20042;-90
2021/04/29 08:40:40;;;;;;;11.68;4.10;;;;;;;22.21;30.17;100185.56;5016865;28;20032;-90
2021/04/29 08:43:05;;;;;;;8.15;4.15;;;;;;;22.45;32.34;100183.63;5017805;28;20041;-89
2021/04/29 08:45:33;;;;;;;12.13;3.80;;;;;;;22.18;29.19;100183.28;5017902;28;20052;-90
2021/04/29 08:47:58;;;;;;;9.23;4.68;;;;;;;23.38;30.20;100184.63;5020922;28;20117;-90
2021/04/29 08:50:25;;;;;;;6.93;3.85;;;;;;;23.12;30.04;100182.53;5020944;28;20076;-90
2021/04/29 08:52:51;;;;;;;8.35;3.40;;;;;;;23.44;28.12;100181.16;5024141;28;20032;-91
2021/04/29 08:55:27;;;;;;;8.02;3.65;;;;;;;23.65;26.50;100182.97;5019907;28;21760;-91
2021/04/29 08:57:53;;;;;;;6.53;2.97;;;;;;;23.83;28.22;100177.13;5024561;28;20024;-90
2021/04/29 09:00:20;;;;;;;11.85;3.75;;;;;;;23.84;28.84;100180.66;5030345;28;20025;-90
2021/04/29 09:02:46;;;;;;;6.57;3.65;;;;;;;22.85;29.08;100179.56;5016968;28;20518;-91
2021/04/29 09:05:16;;;;;;;6.47;3.03;;;;;;;23.25;30.25;100182.66;5022736;28;20030;-91
2021/04/29 09:08:03;;;;;;;7.05;2.70;;;;;;;24.60;27.19;100177.13;5016067;28;20124;-91
2021/04/29 09:10:33;;;;;;;5.28;2.65;;;;;;;24.78;27.78;100190.78;5025105;28;20029;-90
2021/04/29 09:13:00;;;;;;;5.35;2.72;;;;;;;24.51;26.38;100185.34;5016463;28;20047;-90
2021/04/29 09:15:33;;;;;;;5.95;3.30;;;;;;;24.51;26.59;100190.72;5021955;28;20018;-91
2021/04/29 09:18:10;;;;;;;4.32;2.75;;;;;;;25.46;25.91;100192.56;5019681;28;20024;-90
2021/04/29 09:20:38;;;;;;;9.73;3.03;;;;;;;25.51;27.52;100187.38;5016994;28;20384;-93
2021/04/29 09:23:06;;;;;;;5.55;2.85;;;;;;;23.94;25.80;100191.84;5019621;28;20079;-94
2021/04/29 09:25:33;;;;;;;6.07;2.95;;;;;;;24.56;27.51;100189.28;5025839;28;20055;-90
2021/04/29 09:27:59;;;;;;;5.38;2.90;;;;;;;22.86;29.14;100183.88;5015319;28;20476;-86
2021/04/29 09:30:27;;;;;;;5.28;2.40;;;;;;;22.15;29.28;100184.44;5018822;28;20026;-87
2021/04/29 09:32:59;;;;;;;6.72;2.83;;;;;;;23.85;29.90;100187.66;5017358;28;20500;-94
2021/04/29 09:35:25;;;;;;;;;;;;;;;24.51;26.94;100190.72;5018829;28;20387;-89
2021/04/29 09:37:50;;;;;;;4.88;2.70;;;;;;;24.34;27.33;100184.00;5159749;22;20387;-94
2021/04/29 09:40:25;;;;;;;4.85;3.38;;;;;;;25.17;23.61;100191.06;5022540;28;20050;-94
2021/04/29 09:42:51;;;;;;;7.53;3.47;;;;;;;24.49;25.80;100199.97;5011131;28;20069;-90
2021/04/29 09:45:31;;;;;;;8.23;3.60;;;;;;;23.13;26.85;100193.03;5011335;28;20058;-90
2021/04/29 09:48:08;;;;;;;8.57;3.58;;;;;;;23.19;27.44;100199.50;5008980;28;20018;-89
2021/04/29 09:50:46;;;;;;;4.32;3.38;;;;;;;24.17;25.44;100194.25;5012677;28;20084;-90
2021/04/29 09:53:17;;;;;;;6.13;3.35;;;;;;;24.99;24.96;100197.03;5009945;28;20080;-94
2021/04/29 09:55:45;;;;;;;6.32;3.38;;;;;;;25.88;24.28;100195.81;5005713;28;20094;-92
2021/04/29 09:58:18;;;;;;;5.82;3.42;;;;;;;25.65;24.57;100194.44;5011294;28;20384;-90
2021/04/29 10:00:47;;;;;;;5.10;3.67;;;;;;;24.32;25.06;100202.16;5012085;28;20059;-87
2021/04/29 10:03:13;;;;;;;7.72;3.97;;;;;;;24.88;23.74;100206.50;5012890;28;20034;-87
2021/04/29 10:05:40;;;;;;;10.93;3.72;;;;;;;25.86;22.93;100197.91;4997419;28;20358;-87
2021/04/29 10:08:12;;;;;;;7.65;3.42;;;;;;;26.14;23.14;100199.53;5008205;28;20261;-88
2021/04/29 10:10:38;;;;;;;;;;;;;;;26.34;23.75;100197.56;4995589;28;20030;-88
2021/04/29 10:13:05;;;;;;;8.30;3.63;;;;;;;25.41;24.50;100201.22;5001625;28;19944;-88
2021/04/29 10:15:33;;;;;;;6.63;3.75;;;;;;;23.53;26.70;100197.91;5013498;28;20026;-88
2021/04/29 10:17:59;;;;;;;5.13;2.83;;;;;;;22.61;28.49;100203.97;5012161;28;20026;-87
2021/04/29 10:20:26;;;;;;;7.20;3.42;;;;;;;21.79;27.29;100206.56;4994907;28;20019;-87
2021/04/29 10:22:52;;;;;;;7.25;2.92;;;;;;;22.43;27.00;100209.72;5025400;28;20045;-87
2021/04/29 10:25:28;;;;;;;5.18;3.15;;;;;;;23.56;26.82;100214.44;5013967;28;20026;-87
2021/04/29 10:27:55;;;;;;;5.57;3.15;;;;;;;24.70;25.63;100215.13;5015322;28;20022;-92
2021/04/29 10:30:30;;;;;;;3.97;2.78;;;;;;;25.33;25.12;100206.81;5009739;28;20093;-89
2021/04/29 10:32:55;;;;;;;4.95;2.70;;;;;;;25.47;25.12;100202.28;5015982;28;20089;-90
2021/04/29 10:35:23;;;;;;;4.82;3.08;;;;;;;25.10;24.35;100202.66;5037689;28;20307;-90
2021/04/29 10:38:00;;;;;;;11.63;4.43;;;;;;;25.73;22.61;100196.03;5020533;28;20056;-90
2021/04/29 10:40:32;;;;;;;4.20;2.40;;;;;;;25.99;23.76;100197.91;5012427;28;20041;-90
2021/04/29 10:42:58;;;;;;;4.22;2.63;;;;;;;25.91;22.95;100196.28;5012926;28;20026;-91
2021/04/29 10:45:23;;;;;;;5.55;3.03;;;;;;;25.88;22.64;100201.22;5014136;28;20022;-91
2021/04/29 10:47:48;;;;;;;3.58;2.10;;;;;;;25.72;23.14;100192.53;5012177;28;20033;-91
2021/04/29 10:50:18;;;;;;;16.80;8.88;;;;;;;24.98;22.54;100195.38;5011307;28;20501;-91
2021/04/29 10:52:53;;;;;;;4.03;2.33;;;;;;;24.63;23.34;100203.56;5005359;28;20127;-91
2021/04/29 10:55:22;;;;;;;4.13;2.40;;;;;;;24.67;22.68;100205.63;5011329;28;20507;-90
2021/04/29 10:57:47;;;;;;;3.50;2.53;;;;;;;25.60;22.22;100190.69;5011410;28;20034;-91
2021/04/29 11:00:14;;;;;;;5.75;2.92;;;;;;;24.56;24.96;100200.84;5009584;28;20311;-90
2021/04/29 11:02:39;;;;;;;5.40;2.97;;;;;;;23.97;24.65;100202.16;5010136;28;20057;-90
2021/04/29 11:05:08;;;;;;;4.13;2.92;;;;;;;23.60;25.07;100204.16;5011156;28;20022;-90
2021/04/29 11:07:45;;;;;;;8.93;4.65;;;;;;;24.76;22.60;100214.31;5010614;28;20491;-90
2021/04/29 11:10:12;;;;;;;3.67;2.42;;;;;;;23.02;24.36;100204.25;5010835;28;20029;-92
2021/04/29 11:12:46;;;;;;;5.78;2.40;;;;;;;23.99;25.07;100208.16;5008082;28;20500;-90
2021/04/29 11:15:21;;;;;;;3.95;2.20;;;;;;;25.07;23.57;100204.91;5011100;28;20026;-86
2021/04/29 11:17:58;;;;;;;5.20;2.08;;;;;;;25.75;20.35;100190.47;5007404;28;20041;-86
2021/04/29 11:20:23;;;;;;;2.92;1.73;;;;;;;24.83;22.15;100193.69;5011459;28;20033;-90
2021/04/29 11:22:55;;;;;;;4.22;1.75;;;;;;;23.63;23.68;100200.25;5011654;28;20038;-88
2021/04/29 11:25:20;;;;;;;4.75;2.20;;;;;;;22.29;26.63;100195.34;5007801;28;20499;-88
2021/04/29 11:27:45;;;;;;;5.45;3.05;;;;;;;21.07;27.96;100201.66;5011032;28;20077;-88